Kingston, Washington
Current Conditions -  °F | °C
As of 2:53 AM on Thursday 27 Nov 2014 (Local Time) from KPAE Reporting Station
Overcast Overcast  
Wind Chill: 55°   Ceiling: 2400
Heat Index: 55°   Visibility: 10mi
Dew Point: 44°   Wind: 28mph
Humidity: 67%   Direction: 180°S
Pressure: 29.85"   Gusts: 43mph
Location:  47.8°N, 122.5°W
Report Text: KPAE 271053Z AUTO 18024G37KT 10SM OVC024 13/07 A2985 RMK AO2 PK WND 18037/1017 RAB03E12 SLP106 P0000 T01280067
Loading
Personal Weather Stations






























Interactive Weather Map New forecast layout! Learn more

10-Day Weather Forecast

Advertisements
Track Severe Weather on mobile